sensor_id;sensor_type;location;lat;lon;timestamp;pressure;altitude;pressure_sealevel;temperature;humidity
25560;BME280;13450;49.374;8.584;2023-02-25T00:00:22;99436.25;;;5.16;100.00
25560;BME280;13450;49.374;8.584;2023-02-25T00:02:49;99437.06;;;5.16;100.00
25560;BME280;13450;49.374;8.584;2023-02-25T00:05:16;99435.91;;;5.19;100.00
25560;BME280;13450;49.374;8.584;2023-02-25T00:07:42;99446.53;;;5.19;100.00
25560;BME280;13450;49.374;8.584;2023-02-25T00:10:09;99448.50;;;5.17;100.00
25560;BME280;13450;49.374;8.584;2023-02-25T00:12:41;99448.03;;;5.13;100.00
25560;BME280;13450;49.374;8.584;2023-02-25T00:15:08;99447.41;;;5.03;100.00
25560;BME280;13450;49.374;8.584;2023-02-25T00:17:34;99450.59;;;4.98;100.00
25560;BME280;13450;49.374;8.584;2023-02-25T00:20:00;99447.81;;;4.91;100.00
25560;BME280;13450;49.374;8.584;2023-02-25T00:22:26;99457.06;;;4.95;100.00
25560;BME280;13450;49.374;8.584;2023-02-25T00:24:55;99454.25;;;4.97;100.00
25560;BME280;13450;49.374;8.584;2023-02-25T00:29:51;99448.94;;;4.97;100.00
25560;BME280;13450;49.374;8.584;2023-02-25T00:32:20;99456.59;;;4.92;100.00
25560;BME280;13450;49.374;8.584;2023-02-25T00:34:48;99454.44;;;4.87;100.00
25560;BME280;13450;49.374;8.584;2023-02-25T00:37:13;99455.47;;;4.78;100.00
25560;BME280;13450;49.374;8.584;2023-02-25T00:44:49;99457.00;;;4.55;100.00
25560;BME280;13450;49.374;8.584;2023-02-25T00:49:56;99466.66;;;4.48;100.00
25560;BME280;13450;49.374;8.584;2023-02-25T00:52:28;99475.59;;;4.47;100.00
25560;BME280;13450;49.374;8.584;2023-02-25T00:54:55;99479.06;;;4.39;100.00
25560;BME280;13450;49.374;8.584;2023-02-25T00:57:20;99486.38;;;4.37;100.00
25560;BME280;13450;49.374;8.584;2023-02-25T00:59:46;99479.28;;;4.29;100.00
25560;BME280;13450;49.374;8.584;2023-02-25T01:02:11;99492.69;;;4.28;100.00
25560;BME280;13450;49.374;8.584;2023-02-25T01:04:36;99485.38;;;4.30;100.00
25560;BME280;13450;49.374;8.584;2023-02-25T01:07:02;99486.88;;;4.32;100.00
25560;BME280;13450;49.374;8.584;2023-02-25T01:09:27;99497.81;;;4.38;100.00
25560;BME280;13450;49.374;8.584;2023-02-25T01:11:58;99499.28;;;4.40;100.00
25560;BME280;13450;49.374;8.584;2023-02-25T01:14:24;99498.78;;;4.45;100.00
25560;BME280;13450;49.374;8.584;2023-02-25T01:16:51;99492.16;;;4.49;100.00
25560;BME280;13450;49.374;8.584;2023-02-25T01:19:20;99506.06;;;4.51;100.00
25560;BME280;13450;49.374;8.584;2023-02-25T01:21:48;99500.78;;;4.51;100.00
25560;BME280;13450;49.374;8.584;2023-02-25T01:24:17;99495.28;;;4.53;100.00
25560;BME280;13450;49.374;8.584;2023-02-25T01:26:46;99501.41;;;4.53;100.00
25560;BME280;13450;49.374;8.584;2023-02-25T01:29:16;99487.16;;;4.54;100.00
25560;BME280;13450;49.374;8.584;2023-02-25T01:31:43;99492.47;;;4.54;100.00
25560;BME280;13450;49.374;8.584;2023-02-25T01:34:12;99499.25;;;4.57;100.00
25560;BME280;13450;49.374;8.584;2023-02-25T01:36:38;99499.25;;;4.57;100.00
25560;BME280;13450;49.374;8.584;2023-02-25T01:39:04;99496.44;;;4.58;100.00
25560;BME280;13450;49.374;8.584;2023-02-25T01:41:31;99501.72;;;4.58;100.00
25560;BME280;13450;49.374;8.584;2023-02-25T01:44:16;99500.41;;;4.54;100.00
25560;BME280;13450;49.374;8.584;2023-02-25T01:46:44;99497.75;;;4.54;100.00
25560;BME280;13450;49.374;8.584;2023-02-25T01:49:15;99503.06;;;4.54;100.00
25560;BME280;13450;49.374;8.584;2023-02-25T01:51:43;99499.44;;;4.47;100.00
25560;BME280;13450;49.374;8.584;2023-02-25T01:54:11;99487.84;;;4.40;100.00
25560;BME280;13450;49.374;8.584;2023-02-25T01:56:40;99484.41;;;4.31;100.00
25560;BME280;13450;49.374;8.584;2023-02-25T02:04:19;99479.59;;;4.01;100.00
25560;BME280;13450;49.374;8.584;2023-02-25T02:06:48;99487.72;;;3.91;100.00
25560;BME280;13450;49.374;8.584;2023-02-25T02:09:18;99485.22;;;3.82;100.00
25560;BME280;13450;49.374;8.584;2023-02-25T02:11:44;99478.28;;;3.72;100.00
25560;BME280;13450;49.374;8.584;2023-02-25T02:14:17;99475.28;;;3.67;100.00
25560;BME280;13450;49.374;8.584;2023-02-25T02:19:35;99478.59;;;3.52;100.00
25560;BME280;13450;49.374;8.584;2023-02-25T02:39:00;99478.81;;;3.24;100.00
25560;BME280;13450;49.374;8.584;2023-02-25T02:41:35;99479.81;;;3.23;100.00
25560;BME280;13450;49.374;8.584;2023-02-25T02:44:08;99484.63;;;3.28;100.00
25560;BME280;13450;49.374;8.584;2023-02-25T02:46:50;99492.03;;;3.24;100.00
25560;BME280;13450;49.374;8.584;2023-02-25T02:49:20;99489.75;;;3.21;100.00
25560;BME280;13450;49.374;8.584;2023-02-25T02:52:04;99496.34;;;3.17;100.00
25560;BME280;13450;49.374;8.584;2023-02-25T02:54:31;99499.97;;;3.16;100.00
25560;BME280;13450;49.374;8.584;2023-02-25T02:57:03;99498.63;;;3.12;100.00
25560;BME280;13450;49.374;8.584;2023-02-25T02:59:36;99505.88;;;3.10;100.00
25560;BME280;13450;49.374;8.584;2023-02-25T03:02:34;99499.25;;;3.06;100.00
25560;BME280;13450;49.374;8.584;2023-02-25T03:10:15;99515.56;;;2.93;100.00
25560;BME280;13450;49.374;8.584;2023-02-25T03:12:44;99516.38;;;2.93;100.00
25560;BME280;13450;49.374;8.584;2023-02-25T03:15:12;99514.53;;;2.85;100.00
25560;BME280;13450;49.374;8.584;2023-02-25T03:17:41;99515.38;;;2.86;100.00
25560;BME280;13450;49.374;8.584;2023-02-25T03:20:22;99512.03;;;2.84;100.00
25560;BME280;13450;49.374;8.584;2023-02-25T03:22:50;99511.38;;;2.82;100.00
25560;BME280;13450;49.374;8.584;2023-02-25T03:25:31;99514.00;;;2.82;100.00
25560;BME280;13450;49.374;8.584;2023-02-25T03:28:02;99509.09;;;2.87;100.00
25560;BME280;13450;49.374;8.584;2023-02-25T03:30:29;99515.72;;;2.91;100.00
25560;BME280;13450;49.374;8.584;2023-02-25T03:33:07;99516.56;;;3.00;100.00
25560;BME280;13450;49.374;8.584;2023-02-25T03:35:36;99515.81;;;3.08;100.00
25560;BME280;13450;49.374;8.584;2023-02-25T03:38:08;99504.56;;;3.14;100.00
25560;BME280;13450;49.374;8.584;2023-02-25T03:40:36;99519.13;;;3.18;100.00
25560;BME280;13450;49.374;8.584;2023-02-25T03:43:11;99517.78;;;3.14;100.00
25560;BME280;13450;49.374;8.584;2023-02-25T03:45:42;99522.44;;;3.12;100.00
25560;BME280;13450;49.374;8.584;2023-02-25T03:53:19;99533.97;;;3.11;100.00
25560;BME280;13450;49.374;8.584;2023-02-25T03:55:45;99542.44;;;3.14;100.00
25560;BME280;13450;49.374;8.584;2023-02-25T03:58:11;99536.00;;;3.17;100.00
25560;BME280;13450;49.374;8.584;2023-02-25T04:00:38;99532.72;;;3.23;100.00
25560;BME280;13450;49.374;8.584;2023-02-25T04:05:55;99541.50;;;3.32;100.00
25560;BME280;13450;49.374;8.584;2023-02-25T04:08:21;99539.03;;;3.31;100.00
25560;BME280;13450;49.374;8.584;2023-02-25T04:10:46;99540.69;;;3.32;100.00
25560;BME280;13450;49.374;8.584;2023-02-25T04:18:25;99544.50;;;3.37;100.00
25560;BME280;13450;49.374;8.584;2023-02-25T04:23:22;99549.44;;;3.40;100.00
25560;BME280;13450;49.374;8.584;2023-02-25T04:25:50;99552.78;;;3.43;100.00
25560;BME280;13450;49.374;8.584;2023-02-25T04:28:17;99557.22;;;3.42;100.00
25560;BME280;13450;49.374;8.584;2023-02-25T04:30:43;99556.28;;;3.43;100.00
25560;BME280;13450;49.374;8.584;2023-02-25T04:33:09;99556.94;;;3.45;100.00
25560;BME280;13450;49.374;8.584;2023-02-25T04:35:37;99564.69;;;3.47;100.00
25560;BME280;13450;49.374;8.584;2023-02-25T04:38:03;99554.13;;;3.47;100.00
25560;BME280;13450;49.374;8.584;2023-02-25T04:40:30;99548.69;;;3.48;100.00
25560;BME280;13450;49.374;8.584;2023-02-25T04:42:58;99561.06;;;3.48;100.00
25560;BME280;13450;49.374;8.584;2023-02-25T04:45:23;99560.91;;;3.49;100.00
25560;BME280;13450;49.374;8.584;2023-02-25T04:47:54;99555.28;;;3.44;100.00
25560;BME280;13450;49.374;8.584;2023-02-25T04:50:21;99554.94;;;3.39;100.00
25560;BME280;13450;49.374;8.584;2023-02-25T04:52:47;99556.88;;;3.37;100.00
25560;BME280;13450;49.374;8.584;2023-02-25T04:55:13;99567.78;;;3.34;100.00
25560;BME280;13450;49.374;8.584;2023-02-25T04:57:38;99566.13;;;3.33;100.00
25560;BME280;13450;49.374;8.584;2023-02-25T05:00:18;99568.56;;;3.26;100.00
25560;BME280;13450;49.374;8.584;2023-02-25T05:02:46;99569.41;;;3.26;100.00
25560;BME280;13450;49.374;8.584;2023-02-25T05:05:11;99559.16;;;3.23;100.00
25560;BME280;13450;49.374;8.584;2023-02-25T05:07:37;99567.25;;;3.22;100.00
25560;BME280;13450;49.374;8.584;2023-02-25T05:10:04;99573.38;;;3.22;100.00
25560;BME280;13450;49.374;8.584;2023-02-25T05:12:29;99578.66;;;3.22;100.00
25560;BME280;13450;49.374;8.584;2023-02-25T05:14:54;99569.06;;;3.21;100.00
25560;BME280;13450;49.374;8.584;2023-02-25T05:17:19;99564.44;;;3.23;100.00
25560;BME280;13450;49.374;8.584;2023-02-25T05:19:45;99563.63;;;3.23;100.00
25560;BME280;13450;49.374;8.584;2023-02-25T05:22:12;99553.84;;;3.23;100.00
25560;BME280;13450;49.374;8.584;2023-02-25T05:24:38;99563.81;;;3.30;100.00
25560;BME280;13450;49.374;8.584;2023-02-25T05:27:04;99561.84;;;3.32;100.00
25560;BME280;13450;49.374;8.584;2023-02-25T05:29:30;99563.19;;;3.36;100.00
25560;BME280;13450;49.374;8.584;2023-02-25T05:31:55;99564.81;;;3.37;100.00
25560;BME280;13450;49.374;8.584;2023-02-25T05:34:23;99562.34;;;3.35;100.00
25560;BME280;13450;49.374;8.584;2023-02-25T05:36:48;99549.78;;;3.37;100.00
25560;BME280;13450;49.374;8.584;2023-02-25T05:39:14;99560.88;;;3.41;100.00
25560;BME280;13450;49.374;8.584;2023-02-25T05:41:39;99558.91;;;3.43;100.00
25560;BME280;13450;49.374;8.584;2023-02-25T05:44:06;99556.63;;;3.48;100.00
25560;BME280;13450;49.374;8.584;2023-02-25T05:46:34;99553.81;;;3.50;100.00
25560;BME280;13450;49.374;8.584;2023-02-25T05:49:00;99553.16;;;3.56;100.00
25560;BME280;13450;49.374;8.584;2023-02-25T05:51:28;99553.66;;;3.60;100.00
25560;BME280;13450;49.374;8.584;2023-02-25T05:53:54;99553.66;;;3.60;100.00
25560;BME280;13450;49.374;8.584;2023-02-25T05:56:22;99562.13;;;3.63;100.00
25560;BME280;13450;49.374;8.584;2023-02-25T05:58:49;99560.78;;;3.67;100.00
25560;BME280;13450;49.374;8.584;2023-02-25T06:01:21;99566.75;;;3.70;100.00
25560;BME280;13450;49.374;8.584;2023-02-25T06:27:03;99552.22;;;3.82;100.00
25560;BME280;13450;49.374;8.584;2023-02-25T06:29:28;99558.34;;;3.83;100.00
25560;BME280;13450;49.374;8.584;2023-02-25T06:31:56;99566.13;;;3.84;100.00
25560;BME280;13450;49.374;8.584;2023-02-25T06:34:22;99570.59;;;3.84;100.00
25560;BME280;13450;49.374;8.584;2023-02-25T06:36:47;99582.84;;;3.85;100.00
25560;BME280;13450;49.374;8.584;2023-02-25T06:39:12;99580.84;;;3.87;100.00
25560;BME280;13450;49.374;8.584;2023-02-25T06:41:38;99584.19;;;3.89;100.00
25560;BME280;13450;49.374;8.584;2023-02-25T06:44:03;99587.63;;;3.89;100.00
25560;BME280;13450;49.374;8.584;2023-02-25T06:46:30;99591.13;;;3.90;100.00
25560;BME280;13450;49.374;8.584;2023-02-25T06:48:55;99597.06;;;3.92;100.00
25560;BME280;13450;49.374;8.584;2023-02-25T06:51:21;99590.63;;;3.95;100.00
25560;BME280;13450;49.374;8.584;2023-02-25T06:56:22;99611.63;;;3.96;100.00
25560;BME280;13450;49.374;8.584;2023-02-25T07:03:58;99616.31;;;4.02;100.00
25560;BME280;13450;49.374;8.584;2023-02-25T07:06:26;99611.50;;;4.06;100.00
25560;BME280;13450;49.374;8.584;2023-02-25T07:08:51;99611.34;;;4.08;100.00
25560;BME280;13450;49.374;8.584;2023-02-25T07:13:42;99604.91;;;4.18;100.00
25560;BME280;13450;49.374;8.584;2023-02-25T07:16:10;99603.75;;;4.21;100.00
25560;BME280;13450;49.374;8.584;2023-02-25T07:18:35;99606.25;;;4.23;100.00
25560;BME280;13450;49.374;8.584;2023-02-25T07:21:03;99614.84;;;4.25;100.00
25560;BME280;13450;49.374;8.584;2023-02-25T07:31:14;99618.66;;;4.30;100.00
25560;BME280;13450;49.374;8.584;2023-02-25T07:33:41;99622.16;;;4.31;100.00
25560;BME280;13450;49.374;8.584;2023-02-25T07:36:18;99621.78;;;4.34;100.00
25560;BME280;13450;49.374;8.584;2023-02-25T07:38:46;99626.28;;;4.34;100.00
25560;BME280;13450;49.374;8.584;2023-02-25T07:41:16;99623.28;;;4.37;100.00
25560;BME280;13450;49.374;8.584;2023-02-25T07:43:42;99621.63;;;4.36;100.00
25560;BME280;13450;49.374;8.584;2023-02-25T07:46:08;99625.94;;;4.37;100.00
25560;BME280;13450;49.374;8.584;2023-02-25T07:48:33;99624.63;;;4.41;100.00
25560;BME280;13450;49.374;8.584;2023-02-25T07:51:11;99620.81;;;4.43;100.00
25560;BME280;13450;49.374;8.584;2023-02-25T07:53:37;99626.44;;;4.49;100.00
25560;BME280;13450;49.374;8.584;2023-02-25T07:56:04;99626.28;;;4.58;100.00
25560;BME280;13450;49.374;8.584;2023-02-25T07:58:33;99635.22;;;4.57;100.00
25560;BME280;13450;49.374;8.584;2023-02-25T08:00:58;99638.69;;;4.66;100.00
25560;BME280;13450;49.374;8.584;2023-02-25T08:03:24;99642.50;;;4.72;100.00
25560;BME280;13450;49.374;8.584;2023-02-25T08:05:51;99643.34;;;4.73;100.00
25560;BME280;13450;49.374;8.584;2023-02-25T08:08:19;99647.97;;;4.79;100.00
25560;BME280;13450;49.374;8.584;2023-02-25T08:10:44;99645.16;;;4.89;100.00
25560;BME280;13450;49.374;8.584;2023-02-25T08:13:09;99645.81;;;4.99;100.00
25560;BME280;13450;49.374;8.584;2023-02-25T08:15:40;99645.16;;;4.97;100.00
25560;BME280;13450;49.374;8.584;2023-02-25T08:18:05;99635.88;;;5.01;100.00
25560;BME280;13450;49.374;8.584;2023-02-25T08:20:31;99640.16;;;5.10;100.00
25560;BME280;13450;49.374;8.584;2023-02-25T08:22:56;99646.09;;;5.21;100.00
25560;BME280;13450;49.374;8.584;2023-02-25T08:25:23;99635.16;;;5.32;100.00
25560;BME280;13450;49.374;8.584;2023-02-25T08:27:48;99642.91;;;5.34;100.00
25560;BME280;13450;49.374;8.584;2023-02-25T08:30:13;99641.56;;;5.38;100.00
25560;BME280;13450;49.374;8.584;2023-02-25T08:32:39;99632.59;;;5.39;100.00
25560;BME280;13450;49.374;8.584;2023-02-25T08:35:06;99640.09;;;5.35;100.00
25560;BME280;13450;49.374;8.584;2023-02-25T08:37:32;99642.72;;;5.44;100.00
25560;BME280;13450;49.374;8.584;2023-02-25T08:39:58;99640.06;;;5.44;100.00
25560;BME280;13450;49.374;8.584;2023-02-25T08:42:23;99636.41;;;5.45;100.00
25560;BME280;13450;49.374;8.584;2023-02-25T08:44:49;99635.59;;;5.44;100.00
25560;BME280;13450;49.374;8.584;2023-02-25T08:47:16;99623.81;;;5.47;100.00
25560;BME280;13450;49.374;8.584;2023-02-25T08:49:43;99631.81;;;5.30;100.00
25560;BME280;13450;49.374;8.584;2023-02-25T08:52:15;99631.09;;;5.45;100.00
25560;BME280;13450;49.374;8.584;2023-02-25T08:54:42;99636.09;;;5.48;100.00
25560;BME280;13450;49.374;8.584;2023-02-25T08:57:08;99632.75;;;5.46;100.00
25560;BME280;13450;49.374;8.584;2023-02-25T08:59:33;99625.13;;;5.51;100.00
25560;BME280;13450;49.374;8.584;2023-02-25T09:02:05;99634.56;;;5.54;100.00
25560;BME280;13450;49.374;8.584;2023-02-25T09:04:32;99635.38;;;5.54;100.00
25560;BME280;13450;49.374;8.584;2023-02-25T09:06:59;99639.38;;;5.50;100.00
25560;BME280;13450;49.374;8.584;2023-02-25T09:09:24;99636.88;;;5.57;100.00
25560;BME280;13450;49.374;8.584;2023-02-25T09:11:53;99634.00;;;5.67;100.00
25560;BME280;13450;49.374;8.584;2023-02-25T09:14:21;99637.28;;;5.77;100.00
25560;BME280;13450;49.374;8.584;2023-02-25T09:16:47;99636.31;;;5.78;100.00
25560;BME280;13450;49.374;8.584;2023-02-25T09:19:13;99640.47;;;5.72;100.00
25560;BME280;13450;49.374;8.584;2023-02-25T09:21:46;99646.56;;;5.81;100.00
25560;BME280;13450;49.374;8.584;2023-02-25T09:24:16;99646.41;;;5.74;100.00
25560;BME280;13450;49.374;8.584;2023-02-25T09:26:44;99645.25;;;5.77;100.00
25560;BME280;13450;49.374;8.584;2023-02-25T09:29:10;99660.50;;;5.83;100.00
25560;BME280;13450;49.374;8.584;2023-02-25T09:31:36;99653.84;;;5.87;100.00
25560;BME280;13450;49.374;8.584;2023-02-25T09:34:08;99646.66;;;5.96;100.00
25560;BME280;13450;49.374;8.584;2023-02-25T09:36:34;99642.81;;;5.99;100.00
25560;BME280;13450;49.374;8.584;2023-02-25T09:39:02;99636.84;;;6.05;100.00
25560;BME280;13450;49.374;8.584;2023-02-25T09:44:36;99642.59;;;6.17;100.00
25560;BME280;13450;49.374;8.584;2023-02-25T09:49:56;99647.91;;;6.40;100.00
25560;BME280;13450;49.374;8.584;2023-02-25T09:52:28;99647.59;;;6.35;100.00
25560;BME280;13450;49.374;8.584;2023-02-25T09:55:15;99645.25;;;6.40;100.00
25560;BME280;13450;49.374;8.584;2023-02-25T09:57:43;99650.38;;;6.42;100.00
25560;BME280;13450;49.374;8.584;2023-02-25T10:00:19;99647.16;;;6.55;100.00
25560;BME280;13450;49.374;8.584;2023-02-25T10:05:24;99645.72;;;6.44;100.00
25560;BME280;13450;49.374;8.584;2023-02-25T10:10:39;99645.13;;;6.10;100.00
25560;BME280;13450;49.374;8.584;2023-02-25T10:13:20;99646.81;;;6.03;100.00
25560;BME280;13450;49.374;8.584;2023-02-25T10:26:54;99654.63;;;5.56;100.00
25560;BME280;13450;49.374;8.584;2023-02-25T10:29:31;99646.50;;;5.58;100.00
25560;BME280;13450;49.374;8.584;2023-02-25T10:32:22;99649.66;;;5.53;100.00
25560;BME280;13450;49.374;8.584;2023-02-25T10:34:56;99640.47;;;5.72;100.00
25560;BME280;13450;49.374;8.584;2023-02-25T10:40:05;99638.28;;;6.16;100.00
25560;BME280;13450;49.374;8.584;2023-02-25T10:42:35;99642.66;;;6.32;100.00
25560;BME280;13450;49.374;8.584;2023-02-25T10:45:09;99647.38;;;6.45;100.00
25560;BME280;13450;49.374;8.584;2023-02-25T10:47:39;99650.44;;;6.57;100.00
25560;BME280;13450;49.374;8.584;2023-02-25T10:50:25;99650.91;;;6.61;100.00
25560;BME280;13450;49.374;8.584;2023-02-25T10:58:00;99636.22;;;6.88;100.00
25560;BME280;13450;49.374;8.584;2023-02-25T11:00:29;99648.38;;;7.06;100.00
25560;BME280;13450;49.374;8.584;2023-02-25T11:02:56;99642.22;;;7.20;100.00
25560;BME280;13450;49.374;8.584;2023-02-25T11:13:26;99635.88;;;7.82;100.00
25560;BME280;13450;49.374;8.584;2023-02-25T11:15:52;99641.00;;;7.98;98.30
25560;BME280;13450;49.374;8.584;2023-02-25T11:24:59;99660.03;;;7.80;86.74
25560;BME280;13450;49.374;8.584;2023-02-25T11:27:40;99652.78;;;7.29;86.10
25560;BME280;13450;49.374;8.584;2023-02-25T11:30:19;99649.38;;;7.05;91.88
25560;BME280;13450;49.374;8.584;2023-02-25T12:14:55;99614.44;;;11.59;65.07
25560;BME280;13450;49.374;8.584;2023-02-25T12:20:35;99617.03;;;9.57;70.72
25560;BME280;13450;49.374;8.584;2023-02-25T12:39:58;99600.19;;;6.86;88.87
25560;BME280;13450;49.374;8.584;2023-02-25T12:53:23;99579.19;;;10.90;70.03
25560;BME280;13450;49.374;8.584;2023-02-25T13:01:12;99579.44;;;18.01;40.68
25560;BME280;13450;49.374;8.584;2023-02-25T13:06:50;99580.66;;;14.90;41.02
25560;BME280;13450;49.374;8.584;2023-02-25T13:23:32;99595.09;;;8.97;61.61
25560;BME280;13450;49.374;8.584;2023-02-25T13:26:33;99592.84;;;8.44;63.20
25560;BME280;13450;49.374;8.584;2023-02-25T13:29:12;99588.06;;;8.39;65.09
25560;BME280;13450;49.374;8.584;2023-02-25T13:37:26;99584.22;;;7.98;69.21
25560;BME280;13450;49.374;8.584;2023-02-25T13:40:16;99566.25;;;8.07;70.25
25560;BME280;13450;49.374;8.584;2023-02-25T13:45:33;99560.28;;;10.57;63.07
25560;BME280;13450;49.374;8.584;2023-02-25T13:51:10;99558.78;;;15.39;43.48
25560;BME280;13450;49.374;8.584;2023-02-25T13:56:33;99567.31;;;14.29;43.96
25560;BME280;13450;49.374;8.584;2023-02-25T14:10:43;99591.94;;;7.93;100.00
25560;BME280;13450;49.374;8.584;2023-02-25T14:24:50;99601.28;;;13.68;66.71
25560;BME280;13450;49.374;8.584;2023-02-25T14:32:50;99596.66;;;9.55;87.22
25560;BME280;13450;49.374;8.584;2023-02-25T14:41:41;99587.44;;;10.88;71.26
25560;BME280;13450;49.374;8.584;2023-02-25T14:44:14;99599.19;;;10.53;63.01
25560;BME280;13450;49.374;8.584;2023-02-25T14:46:55;99603.09;;;10.57;64.37
25560;BME280;13450;49.374;8.584;2023-02-25T14:49:32;99602.25;;;10.50;63.13
25560;BME280;13450;49.374;8.584;2023-02-25T14:55:27;99613.97;;;11.10;62.16
25560;BME280;13450;49.374;8.584;2023-02-25T15:01:36;99609.53;;;11.56;62.93
25560;BME280;13450;49.374;8.584;2023-02-25T15:07:08;99620.28;;;11.43;60.36
25560;BME280;13450;49.374;8.584;2023-02-25T15:15:14;99620.78;;;11.72;58.53
25560;BME280;13450;49.374;8.584;2023-02-25T15:20:47;99628.56;;;11.21;57.94
25560;BME280;13450;49.374;8.584;2023-02-25T15:23:15;99626.13;;;10.92;58.47
25560;BME280;13450;49.374;8.584;2023-02-25T15:25:47;99623.25;;;10.80;60.16
25560;BME280;13450;49.374;8.584;2023-02-25T15:28:33;99626.97;;;10.79;59.22
25560;BME280;13450;49.374;8.584;2023-02-25T15:35:58;99649.34;;;11.32;57.33
25560;BME280;13450;49.374;8.584;2023-02-25T15:38:54;99637.34;;;10.06;59.71
25560;BME280;13450;49.374;8.584;2023-02-25T15:49:06;99647.63;;;7.12;82.48
25560;BME280;13450;49.374;8.584;2023-02-25T15:51:44;99651.63;;;6.78;87.38
25560;BME280;13450;49.374;8.584;2023-02-25T15:59:43;99659.28;;;6.26;90.15
25560;BME280;13450;49.374;8.584;2023-02-25T16:10:24;99701.38;;;5.66;94.07
25560;BME280;13450;49.374;8.584;2023-02-25T16:12:53;99728.59;;;5.59;95.42
25560;BME280;13450;49.374;8.584;2023-02-25T16:15:35;99744.81;;;5.73;100.00
25560;BME280;13450;49.374;8.584;2023-02-25T16:18:30;99758.53;;;5.20;100.00
25560;BME280;13450;49.374;8.584;2023-02-25T16:21:10;99760.31;;;4.69;100.00
25560;BME280;13450;49.374;8.584;2023-02-25T16:23:41;99771.03;;;4.51;100.00
25560;BME280;13450;49.374;8.584;2023-02-25T16:29:00;99779.28;;;3.97;100.00
25560;BME280;13450;49.374;8.584;2023-02-25T16:31:45;99776.53;;;3.80;100.00
25560;BME280;13450;49.374;8.584;2023-02-25T16:34:25;99785.56;;;3.69;100.00
25560;BME280;13450;49.374;8.584;2023-02-25T16:39:30;99779.13;;;3.45;100.00
25560;BME280;13450;49.374;8.584;2023-02-25T16:42:02;99789.19;;;3.42;100.00
25560;BME280;13450;49.374;8.584;2023-02-25T16:44:35;99785.56;;;3.43;100.00
25560;BME280;13450;49.374;8.584;2023-02-25T16:47:05;99792.81;;;3.40;100.00
25560;BME280;13450;49.374;8.584;2023-02-25T16:49:43;99785.34;;;3.36;100.00
25560;BME280;13450;49.374;8.584;2023-02-25T16:52:19;99792.91;;;3.31;100.00
25560;BME280;13450;49.374;8.584;2023-02-25T16:54:46;99791.94;;;3.32;100.00
25560;BME280;13450;49.374;8.584;2023-02-25T16:57:21;99794.06;;;3.28;100.00
25560;BME280;13450;49.374;8.584;2023-02-25T16:59:48;99799.13;;;3.21;100.00
25560;BME280;13450;49.374;8.584;2023-02-25T17:05:01;99802.44;;;3.23;100.00
25560;BME280;13450;49.374;8.584;2023-02-25T17:07:28;99809.94;;;3.28;100.00
25560;BME280;13450;49.374;8.584;2023-02-25T17:09:58;99805.09;;;3.23;100.00
25560;BME280;13450;49.374;8.584;2023-02-25T17:12:41;99815.00;;;3.21;100.00
25560;BME280;13450;49.374;8.584;2023-02-25T17:17:52;99822.56;;;3.16;100.00
25560;BME280;13450;49.374;8.584;2023-02-25T17:20:22;99827.53;;;3.19;100.00
25560;BME280;13450;49.374;8.584;2023-02-25T17:22:50;99827.53;;;3.19;100.00
25560;BME280;13450;49.374;8.584;2023-02-25T17:25:17;99832.06;;;3.09;100.00
25560;BME280;13450;49.374;8.584;2023-02-25T17:27:45;99835.38;;;3.11;100.00
25560;BME280;13450;49.374;8.584;2023-02-25T17:30:37;99837.50;;;3.07;100.00
25560;BME280;13450;49.374;8.584;2023-02-25T17:33:09;99848.53;;;3.03;100.00
25560;BME280;13450;49.374;8.584;2023-02-25T17:35:45;99851.91;;;2.95;100.00
25560;BME280;13450;49.374;8.584;2023-02-25T17:38:16;99854.47;;;2.86;100.00
25560;BME280;13450;49.374;8.584;2023-02-25T17:40:47;99857.84;;;2.79;100.00
25560;BME280;13450;49.374;8.584;2023-02-25T17:45:39;99868.53;;;2.59;100.00
25560;BME280;13450;49.374;8.584;2023-02-25T17:48:14;99865.50;;;2.54;100.00
25560;BME280;13450;49.374;8.584;2023-02-25T17:50:43;99864.72;;;2.43;100.00
25560;BME280;13450;49.374;8.584;2023-02-25T17:56:22;99877.59;;;2.28;100.00
25560;BME280;13450;49.374;8.584;2023-02-25T17:58:51;99885.09;;;2.23;100.00
25560;BME280;13450;49.374;8.584;2023-02-25T18:01:20;99883.56;;;2.20;100.00
25560;BME280;13450;49.374;8.584;2023-02-25T18:03:50;99882.88;;;2.18;100.00
25560;BME280;13450;49.374;8.584;2023-02-25T18:06:27;99887.63;;;2.15;100.00
25560;BME280;13450;49.374;8.584;2023-02-25T18:08:55;99891.78;;;2.17;100.00
25560;BME280;13450;49.374;8.584;2023-02-25T18:11:25;99890.09;;;2.16;100.00
25560;BME280;13450;49.374;8.584;2023-02-25T18:13:51;99893.72;;;2.15;100.00
25560;BME280;13450;49.374;8.584;2023-02-25T18:16:53;99902.63;;;2.14;100.00
25560;BME280;13450;49.374;8.584;2023-02-25T18:19:37;99896.94;;;2.09;100.00
25560;BME280;13450;49.374;8.584;2023-02-25T18:22:05;99910.44;;;2.06;100.00
25560;BME280;13450;49.374;8.584;2023-02-25T18:24:36;99914.03;;;2.05;100.00
25560;BME280;13450;49.374;8.584;2023-02-25T18:27:06;99910.88;;;2.01;100.00
25560;BME280;13450;49.374;8.584;2023-02-25T18:29:32;99920.59;;;2.01;100.00
25560;BME280;13450;49.374;8.584;2023-02-25T18:31:58;99925.47;;;1.95;100.00
25560;BME280;13450;49.374;8.584;2023-02-25T18:34:23;99915.31;;;1.91;100.00
25560;BME280;13450;49.374;8.584;2023-02-25T18:36:48;99916.56;;;1.87;100.00
25560;BME280;13450;49.374;8.584;2023-02-25T18:39:14;99925.47;;;1.86;100.00
25560;BME280;13450;49.374;8.584;2023-02-25T18:41:40;99929.22;;;1.83;100.00
25560;BME280;13450;49.374;8.584;2023-02-25T18:44:12;99921.88;;;1.77;100.00
25560;BME280;13450;49.374;8.584;2023-02-25T18:46:37;99926.56;;;1.73;100.00
25560;BME280;13450;49.374;8.584;2023-02-25T18:49:04;99932.69;;;1.74;100.00
25560;BME280;13450;49.374;8.584;2023-02-25T18:51:29;99932.97;;;1.70;100.00
25560;BME280;13450;49.374;8.584;2023-02-25T18:53:54;99936.59;;;1.69;100.00
25560;BME280;13450;49.374;8.584;2023-02-25T18:56:20;99943.94;;;1.66;100.00
25560;BME280;13450;49.374;8.584;2023-02-25T18:58:45;99950.47;;;1.62;100.00
25560;BME280;13450;49.374;8.584;2023-02-25T19:01:31;99959.50;;;1.59;100.00